»·PEaware :: N52EF KTEX-KHND

N52EF :: KTEX-KHND

FLIGHT INFORMATION

Flight Status: Arrived
Operator: Privately registered:
United States
More flights under this callsign
Pilot: Ethan S. (29221)
Aircraft: CANADAIR CL-600 CHALLENGER
(CL60)
More flights by this aircraft type
Origin: KTEX Telluride Regl
United States
Destination: KHND Henderson
United States
More flights between these airports :: More routes between these airports
Route: ETL EEEZY BOEGY2
File this flight plan on PilotEdge
Remarks:
Altitude:
(Current/Filed)
40,000ft
Speed:
(Current/Filed)
450kts
Departed: 24-Jan-23 07:04 PM
Arrived: 24-Jan-23 08:06 PM
Distance/Time
Traveled:
366nm/1:02
Distance/Time
To Go:
Arrived

Flight Plot

Page will automatically refresh every two minutes.

Flight plan parsing failed; only flown route is shown


Map Options




Map Legend


Flown Route
Filed Route
Departure Airport
Arrival Airport
Navaid (VOR, NDB)
Fix

Horizontal Profiles

Position Reports

Time Latitude Longitude Heading Altitude Ground
Speed
24-Jan-23 18:35 37.954083 -107.902018 105 9064ft 0kts
24-Jan-23 18:36 37.954083 -107.902018 105 9064ft 0kts
24-Jan-23 18:37 37.954083 -107.902018 105 9064ft 0kts
24-Jan-23 18:38 37.954083 -107.902018 105 9064ft 0kts
24-Jan-23 18:39 37.954083 -107.902018 105 9064ft 0kts
24-Jan-23 18:40 37.954083 -107.902018 105 9064ft 0kts
24-Jan-23 18:41 37.954083 -107.902018 105 9064ft 0kts
24-Jan-23 18:42 37.954083 -107.902018 105 9064ft 0kts
24-Jan-23 18:43 37.954083 -107.902017 105 9064ft 0kts
24-Jan-23 18:44 37.954083 -107.902017 105 9064ft 0kts
24-Jan-23 18:45 37.954083 -107.902017 105 9064ft 0kts
24-Jan-23 18:46 37.954083 -107.902017 105 9064ft 0kts
24-Jan-23 18:47 37.954083 -107.902017 105 9064ft 0kts
24-Jan-23 18:48 37.953868 -107.901434 104 9066ft 0kts
24-Jan-23 18:49 37.953868 -107.901434 104 9066ft 0kts
24-Jan-23 18:50 37.953868 -107.901434 104 9066ft 0kts
24-Jan-23 18:51 37.953868 -107.901434 104 9066ft 0kts
24-Jan-23 18:52 37.953868 -107.901434 104 9066ft 0kts
24-Jan-23 18:53 37.953868 -107.901434 104 9066ft 0kts
24-Jan-23 18:54 37.953868 -107.901434 104 9066ft 0kts
24-Jan-23 18:55 37.953868 -107.901434 104 9066ft 0kts
24-Jan-23 18:56 37.953868 -107.901434 104 9066ft 0kts
24-Jan-23 18:57 37.953868 -107.901433 104 9066ft 0kts
24-Jan-23 18:58 37.953868 -107.901433 104 9066ft 0kts
24-Jan-23 18:59 37.953792 -107.901250 131 9067ft 6kts
24-Jan-23 19:00 37.952672 -107.897887 106 9083ft 9kts
24-Jan-23 19:01 37.952336 -107.896764 139 9090ft 0kts
24-Jan-23 19:02 37.951693 -107.898694 285 9066ft 32kts
24-Jan-23 19:03 37.963100 -107.954199 286 10406ft 251kts
24-Jan-23 19:04 37.987357 -108.046622 293 15292ft 290kts
24-Jan-23 19:05 38.013989 -108.151495 291 18855ft 331kts
24-Jan-23 19:06 38.035930 -108.267931 274 22276ft 368kts
24-Jan-23 19:07 38.001173 -108.395931 256 23258ft 395kts
24-Jan-23 19:08 37.961334 -108.527214 256 26445ft 402kts
24-Jan-23 19:09 37.920653 -108.663280 255 28667ft 422kts
24-Jan-23 19:10 37.878611 -108.803668 255 30724ft 433kts
24-Jan-23 19:11 37.836289 -108.944351 254 33490ft 416kts
24-Jan-23 19:12 37.795335 -109.079896 254 35516ft 412kts
24-Jan-23 19:13 37.754296 -109.215099 254 37075ft 413kts
24-Jan-23 19:14 37.713053 -109.350343 253 38508ft 410kts
24-Jan-23 19:15 37.671664 -109.485336 254 39506ft 413kts
24-Jan-23 19:16 37.630180 -109.620058 254 40622ft 409kts
24-Jan-23 19:17 37.588648 -109.754293 254 41199ft 416kts
24-Jan-23 19:18 37.545602 -109.892858 254 41231ft 432kts
24-Jan-23 19:19 37.501033 -110.035564 254 41295ft 443kts
24-Jan-23 19:20 37.455024 -110.182119 254 41201ft 455kts
24-Jan-23 19:21 37.408171 -110.330483 254 41236ft 455kts
24-Jan-23 19:22 37.361248 -110.478486 253 41196ft 457kts
24-Jan-23 19:23 37.314058 -110.626291 254 41155ft 454kts
24-Jan-23 19:24 37.266970 -110.773124 253 41082ft 454kts
24-Jan-23 19:25 37.219691 -110.919723 253 40989ft 452kts
24-Jan-23 19:26 37.172547 -111.065277 254 40982ft 447kts
24-Jan-23 19:27 37.125588 -111.209632 254 41007ft 449kts
24-Jan-23 19:28 37.078181 -111.354517 254 41013ft 450kts
24-Jan-23 19:29 37.030664 -111.498980 254 41033ft 449kts
24-Jan-23 19:30 36.982914 -111.643506 254 41034ft 449kts
24-Jan-23 19:31 36.935197 -111.787217 254 41042ft 449kts
24-Jan-23 19:32 36.887360 -111.930933 254 41060ft 448kts
24-Jan-23 19:33 36.839114 -112.074901 254 41059ft 451kts
24-Jan-23 19:34 36.790683 -112.218730 254 41002ft 449kts
24-Jan-23 19:35 36.742108 -112.362101 253 40870ft 450kts
24-Jan-23 19:36 36.688658 -112.502405 251 40858ft 446kts
24-Jan-23 19:37 36.635184 -112.641496 252 39906ft 444kts
24-Jan-23 19:38 36.582695 -112.777378 252 37441ft 429kts
24-Jan-23 19:39 36.531586 -112.909194 254 34910ft 418kts
24-Jan-23 19:40 36.481641 -113.037767 254 32343ft 409kts
24-Jan-23 19:41 36.431182 -113.167489 253 29663ft 427kts
24-Jan-23 19:42 36.379694 -113.298747 253 27683ft 419kts
24-Jan-23 19:43 36.330943 -113.426163 254 25666ft 400kts
24-Jan-23 19:44 36.283853 -113.550493 254 23672ft 392kts
24-Jan-23 19:45 36.238123 -113.670730 253 21761ft 383kts
24-Jan-23 19:46 36.193319 -113.788148 253 19835ft 370kts
24-Jan-23 19:47 36.150277 -113.900362 253 17941ft 346kts
24-Jan-23 19:48 36.110235 -114.004636 253 16045ft 328kts
24-Jan-23 19:49 36.070654 -114.105041 251 14314ft 309kts
24-Jan-23 19:50 36.032656 -114.198174 251 13110ft 302kts
24-Jan-23 19:51 35.994741 -114.290989 250 11926ft 300kts
24-Jan-23 19:52 35.957273 -114.382413 250 10740ft 298kts
24-Jan-23 19:53 35.919818 -114.473562 249 9555ft 295kts
24-Jan-23 19:54 35.882014 -114.565973 242 8355ft 307kts
24-Jan-23 19:55 35.846533 -114.651330 242 7279ft 244kts
24-Jan-23 19:56 35.823314 -114.725868 258 6962ft 235kts
24-Jan-23 19:57 35.803731 -114.809741 253 6941ft 256kts
24-Jan-23 19:58 35.783255 -114.892982 253 6956ft 252kts
24-Jan-23 19:59 35.762889 -114.976073 253 6259ft 253kts
24-Jan-23 20:00 35.779978 -115.055885 302 5974ft 259kts
24-Jan-23 20:01 35.824977 -115.118139 317 6000ft 217kts
24-Jan-23 20:02 35.874383 -115.136209 355 5413ft 184kts
24-Jan-23 20:03 35.918607 -115.136080 4 3810ft 138kts
24-Jan-23 20:04 35.955929 -115.135798 6 2746ft 137kts
24-Jan-23 20:05 35.979536 -115.135325 0 2410ft 19kts
24-Jan-23 20:06 35.980218 -115.136229 226 2406ft 5kts
24-Jan-23 20:07 35.977663 -115.136385 186 2416ft 10kts
24-Jan-23 20:08 35.976589 -115.138124 353 2417ft 5kts
24-Jan-23 20:09 35.976813 -115.138123 1 2416ft 0kts
24-Jan-23 20:10 35.976813 -115.138123 1 2416ft 0kts
24-Jan-23 20:11 35.976813 -115.138123 1 2416ft 0kts
24-Jan-23 20:12 35.976813 -115.138123 1 2416ft 0kts
24-Jan-23 20:13 35.976813 -115.138123 1 2416ft 0kts
24-Jan-23 20:14 35.976813 -115.138123 1 2416ft 0kts
24-Jan-23 20:16 35.976813 -115.138123 1 2416ft 0kts
24-Jan-23 20:17 35.976813 -115.138123 1 2416ft 0kts
24-Jan-23 20:18 35.976813 -115.138123 1 2416ft 0kts
24-Jan-23 20:19 35.976813 -115.138123 1 2416ft 0kts

Navigation Log

Ident Type
Flight plan parsing failed, navigation log unavailable